sensor_id;sensor_type;location;lat;lon;timestamp;pressure;altitude;pressure_sealevel;temperature;humidity
16544;BME280;8384;47.996;7.786;2023-04-10T00:02:05;99270.34;;;8.44;50.80
16544;BME280;8384;47.996;7.786;2023-04-10T00:04:30;99275.88;;;7.95;52.86
16544;BME280;8384;47.996;7.786;2023-04-10T00:06:56;99200.25;;;7.55;53.42
16544;BME280;8384;47.996;7.786;2023-04-10T00:09:21;99267.47;;;7.96;52.38
16544;BME280;8384;47.996;7.786;2023-04-10T00:11:46;99272.53;;;7.93;52.62
16544;BME280;8384;47.996;7.786;2023-04-10T00:14:12;99260.91;;;6.99;56.65
16544;BME280;8384;47.996;7.786;2023-04-10T00:16:37;99275.34;;;7.18;56.22
16544;BME280;8384;47.996;7.786;2023-04-10T00:19:02;99253.88;;;7.29;55.62
16544;BME280;8384;47.996;7.786;2023-04-10T00:21:28;99270.72;;;7.56;55.19
16544;BME280;8384;47.996;7.786;2023-04-10T00:23:53;99252.22;;;7.46;54.11
16544;BME280;8384;47.996;7.786;2023-04-10T00:26:18;99247.94;;;7.39;54.80
16544;BME280;8384;47.996;7.786;2023-04-10T00:28:44;99250.34;;;7.10;55.65
16544;BME280;8384;47.996;7.786;2023-04-10T00:31:10;99255.56;;;7.11;55.90
16544;BME280;8384;47.996;7.786;2023-04-10T00:33:35;99237.88;;;7.02;56.37
16544;BME280;8384;47.996;7.786;2023-04-10T00:36:00;99258.88;;;7.13;56.72
16544;BME280;8384;47.996;7.786;2023-04-10T00:38:26;99241.81;;;6.87;56.50
16544;BME280;8384;47.996;7.786;2023-04-10T00:40:51;99251.84;;;6.87;56.43
16544;BME280;8384;47.996;7.786;2023-04-10T00:43:17;99249.31;;;6.67;57.83
16544;BME280;8384;47.996;7.786;2023-04-10T00:45:44;99244.09;;;6.65;57.78
16544;BME280;8384;47.996;7.786;2023-04-10T00:48:10;99250.09;;;6.74;57.54
16544;BME280;8384;47.996;7.786;2023-04-10T00:50:35;99245.56;;;6.86;57.37
16544;BME280;8384;47.996;7.786;2023-04-10T00:53:01;99245.25;;;6.76;57.29
16544;BME280;8384;47.996;7.786;2023-04-10T00:55:27;99235.13;;;6.65;57.45
16544;BME280;8384;47.996;7.786;2023-04-10T00:57:53;99241.03;;;6.80;56.95
16544;BME280;8384;47.996;7.786;2023-04-10T01:00:19;99241.25;;;6.79;56.42
16544;BME280;8384;47.996;7.786;2023-04-10T01:02:45;99238.91;;;6.64;57.44
16544;BME280;8384;47.996;7.786;2023-04-10T01:05:11;99225.06;;;6.47;57.48
16544;BME280;8384;47.996;7.786;2023-04-10T01:07:52;99239.78;;;6.57;57.35
16544;BME280;8384;47.996;7.786;2023-04-10T01:13:10;99247.88;;;6.64;56.92
16544;BME280;8384;47.996;7.786;2023-04-10T01:15:51;99235.56;;;6.62;57.01
16544;BME280;8384;47.996;7.786;2023-04-10T01:18:29;99238.06;;;6.63;56.21
16544;BME280;8384;47.996;7.786;2023-04-10T01:20:56;99245.22;;;6.57;57.50
16544;BME280;8384;47.996;7.786;2023-04-10T01:26:10;99245.34;;;6.44;57.62
16544;BME280;8384;47.996;7.786;2023-04-10T01:28:55;99250.47;;;6.52;57.76
16544;BME280;8384;47.996;7.786;2023-04-10T01:31:35;99239.56;;;6.34;58.21
16544;BME280;8384;47.996;7.786;2023-04-10T01:34:07;99249.16;;;6.36;57.95
16544;BME280;8384;47.996;7.786;2023-04-10T01:36:45;99251.22;;;6.41;58.12
16544;BME280;8384;47.996;7.786;2023-04-10T01:39:13;99235.38;;;6.38;57.79
16544;BME280;8384;47.996;7.786;2023-04-10T01:41:43;99223.97;;;6.29;57.83
16544;BME280;8384;47.996;7.786;2023-04-10T01:44:10;99232.53;;;6.26;58.21
16544;BME280;8384;47.996;7.786;2023-04-10T01:46:38;99231.56;;;6.13;59.00
16544;BME280;8384;47.996;7.786;2023-04-10T01:49:04;99236.91;;;5.56;60.34
16544;BME280;8384;47.996;7.786;2023-04-10T01:51:31;99227.25;;;5.28;61.36
16544;BME280;8384;47.996;7.786;2023-04-10T01:53:59;99224.09;;;5.31;62.50
16544;BME280;8384;47.996;7.786;2023-04-10T01:56:26;99242.56;;;5.54;62.23
16544;BME280;8384;47.996;7.786;2023-04-10T01:58:52;99252.41;;;4.63;65.60
16544;BME280;8384;47.996;7.786;2023-04-10T02:01:21;99254.66;;;4.86;65.02
16544;BME280;8384;47.996;7.786;2023-04-10T02:03:46;99252.56;;;4.88;64.94
16544;BME280;8384;47.996;7.786;2023-04-10T02:06:24;99235.88;;;4.98;64.50
16544;BME280;8384;47.996;7.786;2023-04-10T02:08:58;99245.38;;;5.21;64.18
16544;BME280;8384;47.996;7.786;2023-04-10T02:14:10;99243.72;;;5.20;64.50
16544;BME280;8384;47.996;7.786;2023-04-10T02:16:41;99249.72;;;5.35;63.91
16544;BME280;8384;47.996;7.786;2023-04-10T02:19:09;99252.91;;;5.19;64.60
16544;BME280;8384;47.996;7.786;2023-04-10T02:21:35;99253.56;;;5.07;65.15
16544;BME280;8384;47.996;7.786;2023-04-10T02:24:01;99249.84;;;5.02;66.02
16544;BME280;8384;47.996;7.786;2023-04-10T02:26:27;99242.13;;;5.05;66.31
16544;BME280;8384;47.996;7.786;2023-04-10T02:28:52;99239.03;;;4.88;66.94
16544;BME280;8384;47.996;7.786;2023-04-10T02:31:17;99243.59;;;5.01;66.41
16544;BME280;8384;47.996;7.786;2023-04-10T02:33:43;99227.59;;;4.66;67.46
16544;BME280;8384;47.996;7.786;2023-04-10T02:36:08;99241.78;;;4.75;67.83
16544;BME280;8384;47.996;7.786;2023-04-10T02:38:33;99234.50;;;4.48;68.73
16544;BME280;8384;47.996;7.786;2023-04-10T02:40:59;99238.88;;;4.63;68.12
16544;BME280;8384;47.996;7.786;2023-04-10T02:43:24;99259.72;;;4.56;68.22
16544;BME280;8384;47.996;7.786;2023-04-10T02:45:49;99250.13;;;4.46;68.70
16544;BME280;8384;47.996;7.786;2023-04-10T02:48:15;99256.78;;;4.50;68.98
16544;BME280;8384;47.996;7.786;2023-04-10T02:50:40;99261.38;;;4.30;69.95
16544;BME280;8384;47.996;7.786;2023-04-10T02:53:13;99253.88;;;4.18;70.69
16544;BME280;8384;47.996;7.786;2023-04-10T02:55:38;99256.56;;;4.12;71.43
16544;BME280;8384;47.996;7.786;2023-04-10T02:58:03;99251.47;;;3.62;73.34
16544;BME280;8384;47.996;7.786;2023-04-10T03:00:29;99187.25;;;3.02;74.45
16544;BME280;8384;47.996;7.786;2023-04-10T03:02:55;99224.81;;;3.45;74.12
16544;BME280;8384;47.996;7.786;2023-04-10T03:05:20;99216.13;;;3.63;73.86
16544;BME280;8384;47.996;7.786;2023-04-10T03:07:45;99230.94;;;3.87;73.43
16544;BME280;8384;47.996;7.786;2023-04-10T03:10:11;99237.38;;;3.86;72.96
16544;BME280;8384;47.996;7.786;2023-04-10T03:12:36;99223.03;;;3.93;72.88
16544;BME280;8384;47.996;7.786;2023-04-10T03:15:01;99203.41;;;3.43;74.21
16544;BME280;8384;47.996;7.786;2023-04-10T03:17:27;99210.84;;;3.35;75.35
16544;BME280;8384;47.996;7.786;2023-04-10T03:19:52;99197.22;;;3.70;73.55
16544;BME280;8384;47.996;7.786;2023-04-10T03:22:17;99187.38;;;3.49;74.19
16544;BME280;8384;47.996;7.786;2023-04-10T03:24:42;99190.78;;;3.71;73.70
16544;BME280;8384;47.996;7.786;2023-04-10T03:27:08;99200.38;;;4.00;71.72
16544;BME280;8384;47.996;7.786;2023-04-10T03:29:33;99197.00;;;3.71;73.79
16544;BME280;8384;47.996;7.786;2023-04-10T03:31:59;99205.31;;;3.63;74.18
16544;BME280;8384;47.996;7.786;2023-04-10T03:34:24;99187.44;;;3.69;73.87
16544;BME280;8384;47.996;7.786;2023-04-10T03:36:50;99186.19;;;3.71;73.75
16544;BME280;8384;47.996;7.786;2023-04-10T03:39:15;99192.66;;;3.77;72.41
16544;BME280;8384;47.996;7.786;2023-04-10T03:41:40;99189.53;;;3.73;73.58
16544;BME280;8384;47.996;7.786;2023-04-10T03:44:06;99174.78;;;3.69;73.91
16544;BME280;8384;47.996;7.786;2023-04-10T03:46:31;99191.59;;;3.58;73.48
16544;BME280;8384;47.996;7.786;2023-04-10T03:48:56;99170.53;;;3.33;74.71
16544;BME280;8384;47.996;7.786;2023-04-10T03:51:22;99193.81;;;3.41;75.85
16544;BME280;8384;47.996;7.786;2023-04-10T03:53:48;99192.78;;;3.49;74.78
16544;BME280;8384;47.996;7.786;2023-04-10T03:56:13;99196.09;;;3.30;76.18
16544;BME280;8384;47.996;7.786;2023-04-10T03:58:39;99188.31;;;3.07;77.30
16544;BME280;8384;47.996;7.786;2023-04-10T04:01:04;99190.53;;;3.52;74.82
16544;BME280;8384;47.996;7.786;2023-04-10T04:03:30;99106.94;;;3.37;72.23
16544;BME280;8384;47.996;7.786;2023-04-10T04:05:55;99188.50;;;4.01;71.22
16544;BME280;8384;47.996;7.786;2023-04-10T04:08:20;99193.91;;;4.28;69.22
16544;BME280;8384;47.996;7.786;2023-04-10T04:10:45;99180.41;;;4.35;68.87
16544;BME280;8384;47.996;7.786;2023-04-10T04:13:11;99194.75;;;4.29;68.66
16544;BME280;8384;47.996;7.786;2023-04-10T04:15:36;99201.63;;;4.11;70.64
16544;BME280;8384;47.996;7.786;2023-04-10T04:18:01;99202.25;;;4.00;71.76
16544;BME280;8384;47.996;7.786;2023-04-10T04:20:26;99199.13;;;3.96;71.45
16544;BME280;8384;47.996;7.786;2023-04-10T04:22:52;99201.81;;;3.89;72.42
16544;BME280;8384;47.996;7.786;2023-04-10T04:25:17;99206.84;;;4.06;71.37
16544;BME280;8384;47.996;7.786;2023-04-10T04:27:44;99200.16;;;3.88;71.84
16544;BME280;8384;47.996;7.786;2023-04-10T04:30:09;99196.41;;;3.69;72.66
16544;BME280;8384;47.996;7.786;2023-04-10T04:32:35;99188.25;;;3.56;72.88
16544;BME280;8384;47.996;7.786;2023-04-10T04:35:00;99202.34;;;3.44;74.17
16544;BME280;8384;47.996;7.786;2023-04-10T04:37:26;99177.34;;;3.22;74.76
16544;BME280;8384;47.996;7.786;2023-04-10T04:39:51;99201.50;;;3.30;75.42
16544;BME280;8384;47.996;7.786;2023-04-10T04:42:16;99206.50;;;3.40;75.42
16544;BME280;8384;47.996;7.786;2023-04-10T04:44:41;99205.28;;;3.50;74.37
16544;BME280;8384;47.996;7.786;2023-04-10T04:47:07;99210.69;;;3.50;74.69
16544;BME280;8384;47.996;7.786;2023-04-10T04:49:33;99211.09;;;3.47;74.50
16544;BME280;8384;47.996;7.786;2023-04-10T04:51:58;99199.41;;;3.33;75.26
16544;BME280;8384;47.996;7.786;2023-04-10T04:54:23;99181.94;;;3.28;75.70
16544;BME280;8384;47.996;7.786;2023-04-10T04:56:49;99187.53;;;3.27;75.45
16544;BME280;8384;47.996;7.786;2023-04-10T04:59:14;99208.97;;;3.35;76.05
16544;BME280;8384;47.996;7.786;2023-04-10T05:01:39;99202.28;;;3.18;76.29
16544;BME280;8384;47.996;7.786;2023-04-10T05:04:04;99194.75;;;3.06;77.29
16544;BME280;8384;47.996;7.786;2023-04-10T05:06:30;99191.63;;;3.03;77.17
16544;BME280;8384;47.996;7.786;2023-04-10T05:08:55;99204.69;;;3.06;77.27
16544;BME280;8384;47.996;7.786;2023-04-10T05:11:21;99191.34;;;2.91;77.71
16544;BME280;8384;47.996;7.786;2023-04-10T05:13:47;99187.00;;;2.90;78.16
16544;BME280;8384;47.996;7.786;2023-04-10T05:16:12;99204.53;;;3.14;78.53
16544;BME280;8384;47.996;7.786;2023-04-10T05:18:37;99218.69;;;3.23;77.37
16544;BME280;8384;47.996;7.786;2023-04-10T05:21:03;99222.03;;;3.25;77.84
16544;BME280;8384;47.996;7.786;2023-04-10T05:23:28;99209.69;;;3.09;77.50
16544;BME280;8384;47.996;7.786;2023-04-10T05:25:53;99202.84;;;3.06;78.94
16544;BME280;8384;47.996;7.786;2023-04-10T05:28:18;99211.59;;;3.15;78.07
16544;BME280;8384;47.996;7.786;2023-04-10T05:30:44;99209.56;;;3.24;78.47
16544;BME280;8384;47.996;7.786;2023-04-10T05:33:09;99208.97;;;3.28;78.28
16544;BME280;8384;47.996;7.786;2023-04-10T05:35:34;99206.28;;;3.35;77.13
16544;BME280;8384;47.996;7.786;2023-04-10T05:38:00;99196.69;;;3.33;77.15
16544;BME280;8384;47.996;7.786;2023-04-10T05:40:25;99211.91;;;3.40;77.72
16544;BME280;8384;47.996;7.786;2023-04-10T05:42:51;99197.78;;;3.38;77.98
16544;BME280;8384;47.996;7.786;2023-04-10T05:45:16;99170.28;;;3.28;77.55
16544;BME280;8384;47.996;7.786;2023-04-10T05:47:42;99200.31;;;3.53;77.41
16544;BME280;8384;47.996;7.786;2023-04-10T05:50:08;99198.44;;;3.54;77.74
16544;BME280;8384;47.996;7.786;2023-04-10T05:52:33;99211.94;;;3.54;77.33
16544;BME280;8384;47.996;7.786;2023-04-10T05:54:59;99225.47;;;3.05;80.21
16544;BME280;8384;47.996;7.786;2023-04-10T05:57:24;99213.66;;;3.13;80.54
16544;BME280;8384;47.996;7.786;2023-04-10T05:59:50;99221.72;;;3.48;79.41
16544;BME280;8384;47.996;7.786;2023-04-10T06:02:15;99196.97;;;3.51;78.63
16544;BME280;8384;47.996;7.786;2023-04-10T06:04:40;99225.34;;;3.96;78.11
16544;BME280;8384;47.996;7.786;2023-04-10T06:07:06;99220.13;;;4.14;76.99
16544;BME280;8384;47.996;7.786;2023-04-10T06:09:31;99221.81;;;4.29;76.41
16544;BME280;8384;47.996;7.786;2023-04-10T06:11:56;99232.81;;;4.54;76.38
16544;BME280;8384;47.996;7.786;2023-04-10T06:14:22;99225.31;;;4.70;75.48
16544;BME280;8384;47.996;7.786;2023-04-10T06:16:47;99222.75;;;4.95;74.12
16544;BME280;8384;47.996;7.786;2023-04-10T06:19:12;99232.47;;;5.23;72.45
16544;BME280;8384;47.996;7.786;2023-04-10T06:21:38;99235.34;;;5.35;71.68
16544;BME280;8384;47.996;7.786;2023-04-10T06:24:03;99213.13;;;5.13;73.32
16544;BME280;8384;47.996;7.786;2023-04-10T06:26:28;99241.53;;;5.49;72.47
16544;BME280;8384;47.996;7.786;2023-04-10T06:28:54;99249.19;;;5.65;71.31
16544;BME280;8384;47.996;7.786;2023-04-10T06:31:19;99240.97;;;5.33;75.09
16544;BME280;8384;47.996;7.786;2023-04-10T06:33:48;99234.94;;;5.31;76.25
16544;BME280;8384;47.996;7.786;2023-04-10T06:36:13;99198.38;;;4.95;73.38
16544;BME280;8384;47.996;7.786;2023-04-10T06:38:38;99232.69;;;5.21;71.59
16544;BME280;8384;47.996;7.786;2023-04-10T06:41:04;99187.34;;;4.97;70.83
16544;BME280;8384;47.996;7.786;2023-04-10T06:43:32;99201.41;;;5.25;70.37
16544;BME280;8384;47.996;7.786;2023-04-10T06:45:58;99231.72;;;5.54;68.84
16544;BME280;8384;47.996;7.786;2023-04-10T06:48:23;99242.09;;;5.96;68.08
16544;BME280;8384;47.996;7.786;2023-04-10T06:50:48;99243.47;;;6.19;67.50
16544;BME280;8384;47.996;7.786;2023-04-10T06:53:13;99244.06;;;6.21;65.65
16544;BME280;8384;47.996;7.786;2023-04-10T06:55:39;99237.06;;;6.57;64.22
16544;BME280;8384;47.996;7.786;2023-04-10T06:58:04;99238.81;;;6.70;62.47
16544;BME280;8384;47.996;7.786;2023-04-10T07:00:30;99239.25;;;6.49;64.11
16544;BME280;8384;47.996;7.786;2023-04-10T07:02:55;99237.41;;;6.86;64.21
16544;BME280;8384;47.996;7.786;2023-04-10T07:05:20;99224.38;;;6.95;64.69
16544;BME280;8384;47.996;7.786;2023-04-10T07:07:46;99216.22;;;7.14;63.44
16544;BME280;8384;47.996;7.786;2023-04-10T07:10:11;99222.94;;;6.93;63.87
16544;BME280;8384;47.996;7.786;2023-04-10T07:12:37;99235.84;;;7.34;62.93
16544;BME280;8384;47.996;7.786;2023-04-10T07:15:03;99236.22;;;7.38;62.87
16544;BME280;8384;47.996;7.786;2023-04-10T07:17:28;99242.94;;;7.17;63.50
16544;BME280;8384;47.996;7.786;2023-04-10T07:19:53;99238.47;;;7.41;63.75
16544;BME280;8384;47.996;7.786;2023-04-10T07:22:19;99230.38;;;7.53;62.64
16544;BME280;8384;47.996;7.786;2023-04-10T07:24:44;99240.34;;;7.59;62.45
16544;BME280;8384;47.996;7.786;2023-04-10T07:27:09;99209.00;;;7.38;61.62
16544;BME280;8384;47.996;7.786;2023-04-10T07:29:36;99246.06;;;8.00;59.24
16544;BME280;8384;47.996;7.786;2023-04-10T07:32:01;99245.63;;;8.15;58.55
16544;BME280;8384;47.996;7.786;2023-04-10T07:34:26;99246.03;;;8.43;58.06
16544;BME280;8384;47.996;7.786;2023-04-10T07:36:52;99224.69;;;8.39;58.54
16544;BME280;8384;47.996;7.786;2023-04-10T07:39:17;99232.44;;;8.78;57.92
16544;BME280;8384;47.996;7.786;2023-04-10T07:41:42;99229.94;;;9.12;56.09
16544;BME280;8384;47.996;7.786;2023-04-10T07:44:08;99235.63;;;9.23;56.19
16544;BME280;8384;47.996;7.786;2023-04-10T07:46:33;99224.91;;;9.33;56.08
16544;BME280;8384;47.996;7.786;2023-04-10T07:48:58;99219.03;;;9.53;54.50
16544;BME280;8384;47.996;7.786;2023-04-10T07:51:24;99223.78;;;9.46;54.60
16544;BME280;8384;47.996;7.786;2023-04-10T07:53:50;99239.63;;;9.32;55.55
16544;BME280;8384;47.996;7.786;2023-04-10T07:56:19;99232.19;;;9.56;55.89
16544;BME280;8384;47.996;7.786;2023-04-10T07:58:45;99233.72;;;9.93;53.90
16544;BME280;8384;47.996;7.786;2023-04-10T08:01:11;99232.53;;;10.35;52.75
16544;BME280;8384;47.996;7.786;2023-04-10T08:03:41;99223.50;;;10.69;51.36
16544;BME280;8384;47.996;7.786;2023-04-10T08:06:07;99227.59;;;10.88;50.54
16544;BME280;8384;47.996;7.786;2023-04-10T08:08:36;99220.28;;;11.33;49.00
16544;BME280;8384;47.996;7.786;2023-04-10T08:11:03;99222.59;;;10.63;49.69
16544;BME280;8384;47.996;7.786;2023-04-10T08:13:29;99221.13;;;10.72;49.89
16544;BME280;8384;47.996;7.786;2023-04-10T08:15:54;99218.19;;;11.40;48.05
16544;BME280;8384;47.996;7.786;2023-04-10T08:18:19;99221.78;;;11.68;46.74
16544;BME280;8384;47.996;7.786;2023-04-10T08:20:44;99181.28;;;11.70;46.18
16544;BME280;8384;47.996;7.786;2023-04-10T08:23:10;99203.88;;;12.10;45.69
16544;BME280;8384;47.996;7.786;2023-04-10T08:25:35;99207.72;;;12.42;45.68
16544;BME280;8384;47.996;7.786;2023-04-10T08:28:00;99220.22;;;12.65;45.57
16544;BME280;8384;47.996;7.786;2023-04-10T08:30:25;99215.44;;;12.88;44.46
16544;BME280;8384;47.996;7.786;2023-04-10T08:32:51;99223.34;;;12.79;44.10
16544;BME280;8384;47.996;7.786;2023-04-10T08:35:16;99204.34;;;12.67;44.17
16544;BME280;8384;47.996;7.786;2023-04-10T08:37:41;99214.50;;;12.72;43.12
16544;BME280;8384;47.996;7.786;2023-04-10T08:40:07;99200.78;;;13.20;42.46
16544;BME280;8384;47.996;7.786;2023-04-10T08:42:32;99214.94;;;13.49;42.47
16544;BME280;8384;47.996;7.786;2023-04-10T08:44:58;99213.53;;;13.42;42.58
16544;BME280;8384;47.996;7.786;2023-04-10T08:47:26;99210.56;;;13.54;41.02
16544;BME280;8384;47.996;7.786;2023-04-10T08:49:56;99200.38;;;13.54;42.18
16544;BME280;8384;47.996;7.786;2023-04-10T08:52:24;99202.09;;;13.71;43.04
16544;BME280;8384;47.996;7.786;2023-04-10T08:54:54;99220.56;;;14.06;42.44
16544;BME280;8384;47.996;7.786;2023-04-10T08:57:20;99214.53;;;14.09;42.42
16544;BME280;8384;47.996;7.786;2023-04-10T08:59:47;99227.94;;;13.75;42.83
16544;BME280;8384;47.996;7.786;2023-04-10T09:02:13;99208.06;;;13.47;43.39
16544;BME280;8384;47.996;7.786;2023-04-10T09:04:38;99213.97;;;13.18;42.65
16544;BME280;8384;47.996;7.786;2023-04-10T09:07:04;99203.84;;;13.29;44.39
16544;BME280;8384;47.996;7.786;2023-04-10T09:09:29;99203.78;;;13.18;44.98
16544;BME280;8384;47.996;7.786;2023-04-10T09:11:59;99192.22;;;13.11;43.45
16544;BME280;8384;47.996;7.786;2023-04-10T09:14:25;99199.03;;;13.57;42.67
16544;BME280;8384;47.996;7.786;2023-04-10T09:16:52;99188.63;;;13.69;42.29
16544;BME280;8384;47.996;7.786;2023-04-10T09:19:32;99179.88;;;13.98;41.46
16544;BME280;8384;47.996;7.786;2023-04-10T09:21:58;99184.81;;;14.01;41.83
16544;BME280;8384;47.996;7.786;2023-04-10T09:24:24;99169.94;;;13.66;42.26
16544;BME280;8384;47.996;7.786;2023-04-10T09:26:50;99165.31;;;13.98;40.70
16544;BME280;8384;47.996;7.786;2023-04-10T09:29:15;99174.38;;;14.65;40.81
16544;BME280;8384;47.996;7.786;2023-04-10T09:31:43;99174.13;;;14.41;40.31
16544;BME280;8384;47.996;7.786;2023-04-10T09:36:57;99164.22;;;14.45;40.58
16544;BME280;8384;47.996;7.786;2023-04-10T09:39:34;99168.91;;;14.34;40.81
16544;BME280;8384;47.996;7.786;2023-04-10T09:42:00;99165.59;;;14.68;39.50
16544;BME280;8384;47.996;7.786;2023-04-10T09:44:36;99169.72;;;14.71;39.72
16544;BME280;8384;47.996;7.786;2023-04-10T09:47:16;99146.84;;;14.81;39.67
16544;BME280;8384;47.996;7.786;2023-04-10T09:52:23;99155.00;;;15.07;39.90
16544;BME280;8384;47.996;7.786;2023-04-10T09:54:50;99125.66;;;14.66;39.98
16544;BME280;8384;47.996;7.786;2023-04-10T09:57:17;99143.75;;;15.03;39.66
16544;BME280;8384;47.996;7.786;2023-04-10T09:59:50;99152.09;;;15.43;39.03
16544;BME280;8384;47.996;7.786;2023-04-10T10:02:17;99139.03;;;15.14;38.16
16544;BME280;8384;47.996;7.786;2023-04-10T10:04:43;99137.31;;;15.73;37.70
16544;BME280;8384;47.996;7.786;2023-04-10T10:07:09;99104.97;;;16.54;36.98
16544;BME280;8384;47.996;7.786;2023-04-10T10:09:36;99130.34;;;17.48;36.04
16544;BME280;8384;47.996;7.786;2023-04-10T10:12:02;99130.72;;;18.32;35.52
16544;BME280;8384;47.996;7.786;2023-04-10T10:14:28;99124.84;;;18.94;33.17
16544;BME280;8384;47.996;7.786;2023-04-10T10:16:59;99124.66;;;18.77;31.39
16544;BME280;8384;47.996;7.786;2023-04-10T10:19:32;99117.56;;;17.52;33.75
16544;BME280;8384;47.996;7.786;2023-04-10T10:22:03;99114.25;;;16.87;34.67
16544;BME280;8384;47.996;7.786;2023-04-10T10:24:30;99120.16;;;17.62;34.57
16544;BME280;8384;47.996;7.786;2023-04-10T10:26:57;99103.72;;;16.89;34.95
16544;BME280;8384;47.996;7.786;2023-04-10T10:29:23;99111.31;;;17.03;34.78
16544;BME280;8384;47.996;7.786;2023-04-10T10:31:49;99097.50;;;18.18;33.72
16544;BME280;8384;47.996;7.786;2023-04-10T10:34:15;99118.09;;;18.72;32.63
16544;BME280;8384;47.996;7.786;2023-04-10T10:36:41;99100.09;;;17.76;33.57
16544;BME280;8384;47.996;7.786;2023-04-10T10:39:17;99111.78;;;18.39;33.39
16544;BME280;8384;47.996;7.786;2023-04-10T10:44:55;99104.50;;;17.58;35.30
16544;BME280;8384;47.996;7.786;2023-04-10T10:47:26;99102.09;;;18.22;34.85
16544;BME280;8384;47.996;7.786;2023-04-10T10:50:01;99098.22;;;17.52;34.67
16544;BME280;8384;47.996;7.786;2023-04-10T10:52:47;99092.69;;;18.23;34.42
16544;BME280;8384;47.996;7.786;2023-04-10T10:57:52;99093.63;;;16.79;35.88
16544;BME280;8384;47.996;7.786;2023-04-10T11:00:19;99085.03;;;16.81;37.48
16544;BME280;8384;47.996;7.786;2023-04-10T11:11:07;99076.94;;;17.33;35.09
16544;BME280;8384;47.996;7.786;2023-04-10T11:13:39;99090.44;;;17.16;35.00
16544;BME280;8384;47.996;7.786;2023-04-10T11:16:07;99084.44;;;16.60;35.74
16544;BME280;8384;47.996;7.786;2023-04-10T11:21:17;99074.13;;;16.46;36.38
16544;BME280;8384;47.996;7.786;2023-04-10T11:28:58;99069.38;;;19.13;32.37
16544;BME280;8384;47.996;7.786;2023-04-10T11:31:23;99056.00;;;18.18;33.43
16544;BME280;8384;47.996;7.786;2023-04-10T11:34:09;99067.97;;;17.61;34.69
16544;BME280;8384;47.996;7.786;2023-04-10T11:36:42;99059.22;;;17.73;35.07
16544;BME280;8384;47.996;7.786;2023-04-10T11:39:09;99055.38;;;17.88;35.65
16544;BME280;8384;47.996;7.786;2023-04-10T11:41:40;99061.31;;;18.28;35.05
16544;BME280;8384;47.996;7.786;2023-04-10T11:44:08;99071.72;;;18.64;33.75
16544;BME280;8384;47.996;7.786;2023-04-10T11:46:42;99072.81;;;18.35;34.48
16544;BME280;8384;47.996;7.786;2023-04-10T11:49:10;99072.13;;;18.43;35.37
16544;BME280;8384;47.996;7.786;2023-04-10T11:51:37;99052.56;;;17.74;36.15
16544;BME280;8384;47.996;7.786;2023-04-10T11:56:32;99060.66;;;18.78;34.54
16544;BME280;8384;47.996;7.786;2023-04-10T11:58:57;99064.59;;;18.16;35.58
16544;BME280;8384;47.996;7.786;2023-04-10T12:01:23;99042.78;;;18.14;35.55
16544;BME280;8384;47.996;7.786;2023-04-10T12:03:48;99045.66;;;18.37;35.58
16544;BME280;8384;47.996;7.786;2023-04-10T12:06:14;99056.81;;;18.18;35.22
16544;BME280;8384;47.996;7.786;2023-04-10T12:08:44;99052.88;;;18.05;36.54
16544;BME280;8384;47.996;7.786;2023-04-10T12:11:17;99046.44;;;17.77;36.80
16544;BME280;8384;47.996;7.786;2023-04-10T12:13:42;99032.78;;;17.99;36.93
16544;BME280;8384;47.996;7.786;2023-04-10T12:16:09;99021.97;;;18.87;35.50
16544;BME280;8384;47.996;7.786;2023-04-10T12:18:35;99037.53;;;19.11;34.47
16544;BME280;8384;47.996;7.786;2023-04-10T12:21:01;99032.31;;;19.09;34.47
16544;BME280;8384;47.996;7.786;2023-04-10T12:23:28;99020.94;;;19.33;34.61
16544;BME280;8384;47.996;7.786;2023-04-10T12:26:05;99017.25;;;20.06;33.44
16544;BME280;8384;47.996;7.786;2023-04-10T12:28:32;98994.19;;;18.78;34.75
16544;BME280;8384;47.996;7.786;2023-04-10T12:30:57;99017.28;;;18.59;34.83
16544;BME280;8384;47.996;7.786;2023-04-10T12:33:23;99017.63;;;18.95;34.14
16544;BME280;8384;47.996;7.786;2023-04-10T12:35:50;99014.22;;;19.26;34.06
16544;BME280;8384;47.996;7.786;2023-04-10T12:38:34;99006.50;;;18.30;34.48
16544;BME280;8384;47.996;7.786;2023-04-10T12:41:00;99000.34;;;18.75;34.85
16544;BME280;8384;47.996;7.786;2023-04-10T12:43:34;99015.91;;;19.36;32.82
16544;BME280;8384;47.996;7.786;2023-04-10T12:46:01;99011.31;;;18.80;33.24
16544;BME280;8384;47.996;7.786;2023-04-10T12:48:26;98999.00;;;19.00;33.67
16544;BME280;8384;47.996;7.786;2023-04-10T12:50:52;99018.81;;;18.66;33.31
16544;BME280;8384;47.996;7.786;2023-04-10T12:53:17;98981.56;;;18.86;33.29
16544;BME280;8384;47.996;7.786;2023-04-10T12:55:58;98999.63;;;19.57;31.79
16544;BME280;8384;47.996;7.786;2023-04-10T12:58:24;98981.13;;;19.43;30.62
16544;BME280;8384;47.996;7.786;2023-04-10T13:00:57;98982.44;;;18.44;31.33
16544;BME280;8384;47.996;7.786;2023-04-10T13:03:23;98965.22;;;18.48;30.34
16544;BME280;8384;47.996;7.786;2023-04-10T13:05:49;98974.59;;;19.02;29.14
16544;BME280;8384;47.996;7.786;2023-04-10T13:08:14;98965.03;;;19.31;26.72
16544;BME280;8384;47.996;7.786;2023-04-10T13:10:39;98972.72;;;18.98;27.19
16544;BME280;8384;47.996;7.786;2023-04-10T13:13:06;98966.97;;;19.08;26.57
16544;BME280;8384;47.996;7.786;2023-04-10T13:15:32;98979.00;;;19.72;27.25
16544;BME280;8384;47.996;7.786;2023-04-10T13:18:00;98965.09;;;19.40;27.00
16544;BME280;8384;47.996;7.786;2023-04-10T13:20:25;98963.91;;;18.82;28.71
16544;BME280;8384;47.996;7.786;2023-04-10T13:22:50;98973.84;;;18.83;28.25
16544;BME280;8384;47.996;7.786;2023-04-10T13:25:16;98969.97;;;19.21;29.44
16544;BME280;8384;47.996;7.786;2023-04-10T13:27:41;98967.78;;;18.95;29.07
16544;BME280;8384;47.996;7.786;2023-04-10T13:30:06;98968.13;;;18.79;29.70
16544;BME280;8384;47.996;7.786;2023-04-10T13:32:32;98958.78;;;19.03;30.42
16544;BME280;8384;47.996;7.786;2023-04-10T13:34:57;98959.41;;;18.86;30.65
16544;BME280;8384;47.996;7.786;2023-04-10T13:37:22;98955.09;;;19.53;30.69
16544;BME280;8384;47.996;7.786;2023-04-10T13:39:48;98954.88;;;19.95;29.65
16544;BME280;8384;47.996;7.786;2023-04-10T13:42:13;98943.00;;;19.49;29.32
16544;BME280;8384;47.996;7.786;2023-04-10T13:44:38;98937.25;;;19.23;30.20
16544;BME280;8384;47.996;7.786;2023-04-10T13:47:04;98916.81;;;19.64;29.72
16544;BME280;8384;47.996;7.786;2023-04-10T13:49:29;98928.75;;;19.73;29.00
16544;BME280;8384;47.996;7.786;2023-04-10T13:51:55;98926.22;;;19.86;29.72
16544;BME280;8384;47.996;7.786;2023-04-10T13:54:21;98911.16;;;19.24;30.53